Ana Sayfa
METAR-TAF:

METAR-TAF

Havaalanları :

Tokat, Türkiye

Tokat Havalimanı

Enlem: 40-18N, Boylam: 036-34E, yükseklik: 608 m

Güncel hava durumu gözlemi

Rapor saat 12:50 UTC de 9 saat ve 38 dakika önce yapıldı.
Rüzgar değişken yönden 2 kt
Sıcaklık 17°C
Nem 34%
Basınç 1009 hPa
Görüş mesafesi 10 km veya daha fazla
4000 ft yükseklikte parçalı bulutlu

METAR: LTAW 231250Z VRB02KT 9999 SCT040 17/01 Q1009

Saat: 01:28 (22:28 UTC)

Tahmin

Rapor saat 13:40 UTC de 8 saat ve 48 dakika önce yapıldı.
Ayın 23'si saat 15 UTC'den ayın 23'si saat 24 UTC'ye kadar geçerli Tahmin
Rüzgar değişken yönden 2 kt
Görüş mesafesi 10 km veya daha fazla
4000 ft yükseklikte parçalı bulutlu
10000 ft yükseklikte parçalı çok bulutlu
Dönüşüyor
ayın 23'si saat 15 UTC'den ayın 23'si saat 18 UTC'ye kadar
Rüzgar doğu/kuzeydoğudan 12 kt

TAF: LTAW 231340Z 2315/2324 VRB02KT 9999 SCT040 BKN100 BECMG 2315/2318 06012KT

4.000'den fazla havaalanı için hava durumu gözlemleri ve tahminleri (METAR ve TAF raporları).

Kullanılabilir istasyonlar harita üzerinde sarı ve kırmızı noktalarla gösterilir.

İstasyonun adını görmek için fareyi noktanın üzerinde gezdirin.

Sonrasında hava gözlem ve tahminlerini görmek için tıklayın.

Haritayı değiştirmek için: yaklaştırmak için siyah artı işaretli yeşil düğmeye ve uzaklaştırmak için de eksi işaretli düğmeye hızla tıklayın; bitişik haritalar için yeşil okları kullanın.


METAR-TAF: